Time;durP1;ratioP1;P1;durP2;ratioP2;P2;SDS_P1;SDS_P2;PMS_P1;PMS_P2;Temp;Humidity;BMP_temperature;BMP_pressure;BME280_temperature;BME280_humidity;BME280_pressure;Samples;Min_cycle;Max_cycle;Signal;HPM_P1;HPM_P2
2022/05/05 00:00:09;;;;;;;480.52;404.67;;;;;;;16.96;48.67;101173.41;687620;28;69389;-69
2022/05/05 00:00:30;;;;;;;462.27;348.83;;;;;;;16.97;48.82;101172.34;689314;28;21383;-69
2022/05/05 00:00:52;;;;;;;453.92;324.13;;;;;;;16.97;48.67;101171.50;689352;28;21472;-68
2022/05/05 00:01:13;;;;;;;451.35;305.38;;;;;;;16.98;48.72;101173.19;688026;28;47112;-69
2022/05/05 00:01:34;;;;;;;451.73;304.20;;;;;;;16.98;48.61;101175.91;687378;28;45237;-69
2022/05/05 00:01:55;;;;;;;451.50;306.15;;;;;;;16.95;48.85;101168.97;689015;28;22391;-70
2022/05/05 00:02:17;;;;;;;451.85;306.17;;;;;;;16.97;48.74;101172.34;689081;28;20935;-68
2022/05/05 00:02:38;;;;;;;454.63;322.88;;;;;;;16.98;48.57;101170.47;688547;28;46507;-69
2022/05/05 00:02:59;;;;;;;454.92;325.48;;;;;;;16.97;48.58;101175.06;689294;28;21486;-70
2022/05/05 00:03:21;;;;;;;455.00;323.33;;;;;;;16.96;48.62;101172.53;689321;28;23589;-69
2022/05/05 00:03:42;;;;;;;454.92;324.38;;;;;;;16.96;48.66;101170.66;691962;28;23043;-70
2022/05/05 00:04:04;;;;;;;453.23;315.73;;;;;;;16.98;48.48;101175.91;691018;28;46288;-70
2022/05/05 00:04:25;;;;;;;451.70;308.02;;;;;;;16.98;48.51;101173.19;690651;28;47051;-69
2022/05/05 00:04:46;;;;;;;451.92;307.13;;;;;;;16.93;48.68;101166.47;692016;28;22373;-69
2022/05/05 00:05:09;;;;;;;449.92;298.92;;;;;;;16.97;48.79;101166.03;692040;28;22399;-68
2022/05/05 00:05:30;;;;;;;454.38;321.75;;;;;;;16.97;48.82;101175.06;690503;28;46310;-69
2022/05/05 00:05:51;;;;;;;456.20;332.60;;;;;;;16.97;48.53;101176.97;689554;28;23557;-69
2022/05/05 00:06:13;;;;;;;456.73;331.75;;;;;;;16.94;48.48;101170.03;688239;28;45291;-70
2022/05/05 00:06:34;;;;;;;455.90;321.42;;;;;;;16.95;48.51;101168.97;689121;28;21545;-70
2022/05/05 00:06:55;;;;;;;451.20;302.80;;;;;;;16.95;48.68;101168.97;690110;28;21527;-69
2022/05/05 00:07:16;;;;;;;452.45;308.60;;;;;;;16.95;48.75;101166.25;689890;28;22349;-69
2022/05/05 00:07:38;;;;;;;453.63;313.02;;;;;;;16.96;48.66;101176.13;690171;28;21516;-68
2022/05/05 00:07:59;;;;;;;451.77;307.13;;;;;;;16.95;48.67;101171.72;688764;28;46333;-69
2022/05/05 00:08:22;;;;;;;453.13;310.88;;;;;;;16.95;48.67;101174.44;690088;28;21820;-69
2022/05/05 00:08:44;;;;;;;455.13;319.42;;;;;;;16.95;48.58;101173.59;688494;28;69297;-69
2022/05/05 00:09:05;;;;;;;454.95;320.33;;;;;;;16.95;48.55;101168.16;688987;28;45297;-69
2022/05/05 00:09:26;;;;;;;462.75;350.23;;;;;;;16.94;48.75;101167.28;689381;28;21525;-69
2022/05/05 00:09:47;;;;;;;461.75;348.23;;;;;;;16.95;48.29;101170.88;689294;28;22373;-69
2022/05/05 00:14:27;;;;;;;453.90;316.95;;;;;;;16.92;48.26;101159.31;686279;28;137344;-69
2022/05/05 00:14:48;;;;;;;460.23;342.65;;;;;;;16.95;48.44;101159.97;685786;28;136148;-69
2022/05/05 00:15:09;;;;;;;457.60;334.33;;;;;;;16.94;48.39;101159.09;690060;28;22265;-69
2022/05/05 00:15:31;;;;;;;456.55;323.58;;;;;;;16.94;48.45;101164.56;689180;28;46719;-68
2022/05/05 00:15:54;;;;;;;455.17;315.27;;;;;;;16.93;48.33;101155.56;689075;28;47773;-69
2022/05/05 00:16:15;;;;;;;456.08;317.30;;;;;;;16.93;48.48;101154.72;688204;28;45280;-69
2022/05/05 00:16:36;;;;;;;459.02;332.40;;;;;;;16.92;48.39;101156.59;689268;28;21262;-70
2022/05/05 00:16:59;;;;;;;456.73;333.35;;;;;;;16.93;48.44;101157.44;689346;28;46331;-69
2022/05/05 00:17:21;;;;;;;457.20;335.08;;;;;;;16.92;48.42;101156.59;688875;28;46421;-70
2022/05/05 00:17:42;;;;;;;455.60;323.75;;;;;;;16.92;48.17;101159.31;689039;28;47300;-69
2022/05/05 00:18:04;;;;;;;454.25;312.85;;;;;;;16.93;48.38;101160.19;690546;28;2779;-69
2022/05/05 00:18:25;;;;;;;451.92;306.02;;;;;;;16.92;48.28;101153.03;690758;28;1739;-69
2022/05/05 00:18:46;;;;;;;452.75;308.80;;;;;;;16.93;48.31;101155.56;690027;28;23571;-70
2022/05/05 00:19:08;;;;;;;452.38;304.20;;;;;;;16.93;48.19;101154.72;690046;28;23411;-69
2022/05/05 00:19:31;;;;;;;452.05;302.33;;;;;;;16.93;47.99;101158.28;688311;28;45225;-69
2022/05/05 00:19:52;;;;;;;451.52;298.05;;;;;;;16.92;48.12;101159.31;688102;28;69457;-69
2022/05/05 00:20:13;;;;;;;451.20;302.15;;;;;;;16.91;48.26;101163.13;690028;28;21534;-69
2022/05/05 00:20:35;;;;;;;451.50;300.25;;;;;;;16.95;48.23;101151.78;690006;28;21591;-69
2022/05/05 00:20:56;;;;;;;451.25;302.63;;;;;;;16.94;48.17;101159.09;688968;28;46427;-70
2022/05/05 00:21:17;;;;;;;453.15;307.45;;;;;;;16.94;48.11;101156.38;689433;28;23387;-69
2022/05/05 00:21:38;;;;;;;451.65;300.67;;;;;;;16.94;48.19;101150.91;689060;28;23476;-69
2022/05/05 00:22:01;;;;;;;451.90;302.15;;;;;;;16.93;48.19;101160.19;688899;28;44310;-69
2022/05/05 00:22:23;;;;;;;453.17;305.83;;;;;;;16.93;48.10;101160.19;688326;28;70136;-69
2022/05/05 00:22:44;;;;;;;455.15;310.48;;;;;;;16.92;48.24;101161.22;689667;28;21544;-69
2022/05/05 00:23:05;;;;;;;453.60;306.38;;;;;;;16.92;48.26;101162.03;690782;28;1540;-69
2022/05/05 00:23:27;;;;;;;453.83;307.67;;;;;;;16.90;48.24;101158.69;689619;28;23497;-70
2022/05/05 00:23:49;;;;;;;454.10;307.48;;;;;;;16.89;48.16;101162.47;688314;28;67486;-70
2022/05/05 00:24:12;;;;;;;452.30;301.52;;;;;;;16.88;48.17;101149.03;689116;28;46203;-69
2022/05/05 00:24:33;;;;;;;451.73;298.70;;;;;;;16.86;48.25;101151.97;688818;28;44404;-69
2022/05/05 00:24:56;;;;;;;450.92;298.17;;;;;;;16.86;48.33;101153.84;689102;28;22191;-69
2022/05/05 00:25:17;;;;;;;452.45;304.30;;;;;;;16.85;48.20;101152.13;688032;28;69448;-69
2022/05/05 00:25:38;;;;;;;450.50;299.75;;;;;;;16.85;48.20;101152.13;692359;28;22391;-69
2022/05/05 00:25:59;;;;;;;450.45;296.50;;;;;;;16.85;48.21;101154.88;691316;28;46313;-69
2022/05/05 00:26:21;;;;;;;451.73;301.17;;;;;;;16.84;48.54;101151.31;690556;28;22387;-69
2022/05/05 00:26:42;;;;;;;448.77;294.63;;;;;;;16.84;48.16;101151.31;691343;28;45259;-70
2022/05/05 00:27:04;;;;;;;450.02;298.58;;;;;;;16.84;48.32;101153.22;689593;28;23486;-69
2022/05/05 00:27:28;;;;;;;452.33;302.75;;;;;;;16.84;48.45;101150.47;688916;28;46888;-71
2022/05/05 00:27:49;;;;;;;452.55;303.92;;;;;;;16.84;48.55;101151.31;687005;28;91940;-69
2022/05/05 00:28:10;;;;;;;453.02;307.30;;;;;;;16.82;48.42;101149.81;689625;28;22400;-70
2022/05/05 00:28:31;;;;;;;451.98;301.08;;;;;;;16.82;48.51;101147.97;690438;28;9241;-69
2022/05/05 00:28:52;;;;;;;453.08;304.85;;;;;;;16.83;48.58;101151.53;689820;28;23369;-70
2022/05/05 00:29:15;;;;;;;451.02;298.02;;;;;;;16.78;48.32;101134.94;690011;28;22489;-68
2022/05/05 00:29:36;;;;;;;453.65;304.00;;;;;;;16.83;48.57;101152.34;687587;28;70452;-70
2022/05/05 00:29:57;;;;;;;455.73;311.13;;;;;;;16.83;48.42;101149.63;689928;28;22293;-68
2022/05/05 00:30:18;;;;;;;451.73;299.88;;;;;;;16.83;48.41;101143.34;689816;28;23471;-70
2022/05/05 00:30:39;;;;;;;451.48;296.08;;;;;;;16.82;48.53;101147.97;689960;28;22225;-69
2022/05/05 00:31:02;;;;;;;450.70;297.45;;;;;;;16.82;48.44;101142.50;689972;28;22378;-69
2022/05/05 00:31:23;;;;;;;452.80;303.63;;;;;;;16.83;48.59;101143.34;687943;28;45016;-69
2022/05/05 00:31:44;;;;;;;452.48;301.10;;;;;;;16.82;48.31;101139.78;690089;28;1767;-69
2022/05/05 00:32:06;;;;;;;450.83;296.50;;;;;;;16.85;48.36;101146.69;688780;28;45243;-69
2022/05/05 00:32:28;;;;;;;452.58;302.17;;;;;;;16.85;48.32;101150.28;689564;28;22352;-69
2022/05/05 00:32:49;;;;;;;452.55;302.63;;;;;;;16.83;48.21;101146.06;688899;28;45321;-69
2022/05/05 00:33:10;;;;;;;451.60;296.25;;;;;;;16.85;48.54;101149.41;689849;28;21527;-69
2022/05/05 00:33:31;;;;;;;451.80;299.08;;;;;;;16.84;48.33;101143.13;690134;28;21252;-68
2022/05/05 00:33:53;;;;;;;460.27;323.95;;;;;;;16.85;48.28;101149.41;690028;28;21462;-69
2022/05/05 00:34:14;;;;;;;467.85;346.45;;;;;;;16.84;48.39;101150.47;688832;28;46174;-69
2022/05/05 00:34:36;;;;;;;462.67;332.65;;;;;;;16.83;48.63;101149.63;690112;28;1569;-68
2022/05/05 00:34:57;;;;;;;454.38;310.33;;;;;;;16.83;48.62;101148.78;689818;28;22393;-70
2022/05/05 00:35:19;;;;;;;453.35;308.63;;;;;;;16.81;48.59;101143.53;689655;28;22273;-69
2022/05/05 00:35:40;;;;;;;453.45;309.15;;;;;;;16.80;48.33;101147.31;689058;28;44457;-68
2022/05/05 00:36:01;;;;;;;452.50;306.45;;;;;;;16.83;48.58;101151.53;689914;28;22341;-69
2022/05/05 00:36:22;;;;;;;454.45;310.13;;;;;;;16.82;48.37;101150.69;688861;28;27929;-69
2022/05/05 00:36:44;;;;;;;454.88;310.30;;;;;;;16.80;48.32;101143.75;690084;28;7189;-69
2022/05/05 00:37:06;;;;;;;452.35;303.88;;;;;;;16.80;48.39;101150.03;688832;28;45014;-70
2022/05/05 00:37:27;;;;;;;451.95;301.15;;;;;;;16.78;48.24;101145.84;689645;28;21608;-69
2022/05/05 00:37:48;;;;;;;450.63;296.07;;;;;;;16.77;48.28;101155.94;689662;28;23575;-69
2022/05/05 00:38:09;;;;;;;450.10;292.52;;;;;;;16.77;48.14;101147.75;688636;28;46376;-69
2022/05/05 00:38:32;;;;;;;452.35;300.02;;;;;;;16.76;48.27;101146.91;690203;28;1584;-68
2022/05/05 00:38:53;;;;;;;454.27;309.80;;;;;;;16.75;48.22;101145.25;687997;28;70381;-69
2022/05/05 00:39:14;;;;;;;450.95;299.63;;;;;;;16.76;48.43;101148.78;689480;28;22395;-68
2022/05/05 00:39:35;;;;;;;452.80;303.40;;;;;;;16.77;48.20;101142.31;689299;28;21645;-69
2022/05/05 00:39:56;;;;;;;452.80;302.70;;;;;;;16.78;48.42;101145.84;689361;28;22480;-69
2022/05/05 00:40:18;;;;;;;450.92;302.52;;;;;;;16.78;48.26;101143.97;689390;28;23479;-68
2022/05/05 00:40:41;;;;;;;452.42;311.75;;;;;;;16.80;48.26;101143.75;688766;28;46226;-70
2022/05/05 00:41:02;;;;;;;451.02;300.65;;;;;;;16.80;48.54;101141.84;688262;28;69500;-69
2022/05/05 00:41:23;;;;;;;451.23;301.13;;;;;;;16.81;48.31;101143.53;689636;28;4817;-69
2022/05/05 00:41:46;;;;;;;451.67;302.90;;;;;;;16.82;48.21;101138.91;690436;28;1547;-70
2022/05/05 00:42:12;;;;;;;450.65;298.50;;;;;;;16.81;48.24;101145.44;689021;28;46376;-69
2022/05/05 00:42:34;;;;;;;449.48;290.90;;;;;;;16.83;48.23;101148.78;685585;28;137819;-69
2022/05/05 00:42:57;;;;;;;452.58;300.42;;;;;;;16.83;48.39;101146.06;689012;28;45216;-69
2022/05/05 00:43:18;;;;;;;449.50;294.50;;;;;;;16.82;48.35;101142.50;687953;28;69271;-69
2022/05/05 00:43:40;;;;;;;452.95;304.60;;;;;;;16.83;48.40;101149.63;689718;28;22501;-69
2022/05/05 00:44:02;;;;;;;452.85;305.50;;;;;;;16.84;48.48;101145.03;689008;28;46293;-68
2022/05/05 00:44:24;;;;;;;454.83;313.85;;;;;;;16.83;48.29;101148.78;690371;28;1723;-69
2022/05/05 00:44:45;;;;;;;454.70;310.27;;;;;;;16.84;48.25;101151.31;689350;28;23391;-69
2022/05/05 00:45:08;;;;;;;453.83;306.25;;;;;;;16.86;48.08;101151.13;689972;28;22411;-69
2022/05/05 00:45:30;;;;;;;454.13;308.38;;;;;;;16.84;48.18;101145.84;689182;28;38711;-68
2022/05/05 00:45:52;;;;;;;455.50;315.33;;;;;;;16.85;48.12;101146.69;689679;28;22314;-69
2022/05/05 00:46:13;;;;;;;454.05;308.23;;;;;;;16.84;48.19;101145.84;689414;28;23396;-70
2022/05/05 00:46:34;;;;;;;453.65;303.85;;;;;;;16.86;48.27;101148.41;689188;28;23695;-70
2022/05/05 00:46:57;;;;;;;451.83;304.95;;;;;;;16.85;48.37;101152.13;689912;28;23546;-69
2022/05/05 00:47:19;;;;;;;452.65;306.25;;;;;;;16.84;48.01;101143.13;687202;28;92165;-69
2022/05/05 00:47:40;;;;;;;452.98;306.33;;;;;;;16.85;48.28;101150.28;689818;28;22401;-69
2022/05/05 00:48:05;;;;;;;453.20;309.58;;;;;;;16.84;48.30;101142.28;689913;28;21642;-70
2022/05/05 00:48:27;;;;;;;452.17;302.40;;;;;;;16.83;48.11;101146.06;688345;28;60687;-71
2022/05/05 00:48:50;;;;;;;454.02;311.45;;;;;;;16.82;48.24;101147.97;689639;28;22395;-68
2022/05/05 00:49:11;;;;;;;452.15;301.92;;;;;;;16.82;48.34;101147.97;686882;28;92458;-69
2022/05/05 00:49:32;;;;;;;453.58;302.33;;;;;;;16.80;48.09;101150.03;689371;28;22378;-69
2022/05/05 00:49:54;;;;;;;452.75;302.73;;;;;;;16.78;48.33;101141.22;689800;28;24815;-69
2022/05/05 00:50:16;;;;;;;453.77;309.85;;;;;;;16.79;48.33;101142.91;688796;28;44398;-70
2022/05/05 00:50:37;;;;;;;451.13;299.48;;;;;;;16.78;48.37;101146.69;689939;28;21570;-70
2022/05/05 00:50:58;;;;;;;449.42;294.35;;;;;;;16.76;48.53;101141.44;689732;28;23483;-68
2022/05/05 00:51:19;;;;;;;451.05;296.00;;;;;;;16.73;48.40;101141.84;688446;28;46452;-69
2022/05/05 00:51:42;;;;;;;452.35;304.27;;;;;;;16.75;48.34;101147.97;690004;28;23594;-69
2022/05/05 00:52:04;;;;;;;452.58;305.40;;;;;;;16.72;48.21;101140.19;688991;28;44373;-69
2022/05/05 00:52:25;;;;;;;450.95;298.75;;;;;;;16.76;48.61;101143.34;688722;28;45235;-69
2022/05/05 00:52:46;;;;;;;451.48;302.02;;;;;;;16.75;48.34;101147.09;689088;28;46715;-69
2022/05/05 00:53:08;;;;;;;452.10;305.33;;;;;;;16.74;48.64;101150.91;689672;28;23399;-69
2022/05/05 00:53:29;;;;;;;451.60;299.58;;;;;;;16.73;48.51;101141.03;689212;28;47183;-69
2022/05/05 00:53:54;;;;;;;449.70;296.92;;;;;;;16.73;48.85;101147.31;689896;28;20893;-68
2022/05/05 00:54:16;;;;;;;452.58;305.77;;;;;;;16.74;48.59;101143.53;686233;28;114687;-70
2022/05/05 00:54:38;;;;;;;452.95;306.95;;;;;;;16.74;48.48;101148.16;689858;28;23435;-69
2022/05/05 00:55:00;;;;;;;452.85;308.98;;;;;;;16.73;48.60;101147.31;688113;28;68479;-69
2022/05/05 00:55:21;;;;;;;452.83;305.20;;;;;;;16.73;48.74;101152.75;688693;28;45336;-68
2022/05/05 00:55:42;;;;;;;450.73;298.10;;;;;;;16.75;48.69;101149.81;689698;28;23456;-69
2022/05/05 00:56:05;;;;;;;453.65;307.20;;;;;;;16.74;48.87;101146.28;689276;28;22504;-69
2022/05/05 00:56:29;;;;;;;455.10;307.75;;;;;;;16.75;48.99;101152.56;686552;28;69456;-69
2022/05/05 00:56:50;;;;;;;452.00;299.00;;;;;;;16.75;48.75;101150.69;685545;28;69401;-69
2022/05/05 00:57:13;;;;;;;452.83;308.15;;;;;;;16.76;48.83;101146.06;686495;28;44309;-69
2022/05/05 00:57:35;;;;;;;450.42;294.92;;;;;;;16.75;48.74;101149.81;685933;28;47207;-69
2022/05/05 00:57:57;;;;;;;450.77;295.98;;;;;;;16.75;48.63;101152.56;685664;28;68411;-68
2022/05/05 00:58:19;;;;;;;451.60;299.08;;;;;;;16.73;48.54;101143.75;687065;28;18840;-69
2022/05/05 00:58:42;;;;;;;453.45;306.67;;;;;;;16.73;48.58;101152.75;687105;28;21369;-69
2022/05/05 00:59:05;;;;;;;451.85;300.52;;;;;;;16.72;48.77;101145.66;684496;28;90210;-70
2022/05/05 00:59:27;;;;;;;451.77;297.20;;;;;;;16.72;48.57;101145.66;685125;28;70318;-69
2022/05/05 00:59:49;;;;;;;455.58;306.33;;;;;;;16.72;48.85;101144.78;685630;28;45103;-69
2022/05/05 01:00:14;;;;;;;453.58;308.50;;;;;;;16.71;48.68;101146.69;686010;28;45262;-70
2022/05/05 01:00:35;;;;;;;453.27;306.67;;;;;;;16.71;48.68;101148.59;684474;28;91262;-68
2022/05/05 01:00:59;;;;;;;452.50;301.25;;;;;;;16.71;48.98;101154.88;686099;28;45195;-69
2022/05/05 01:01:22;;;;;;;453.20;304.73;;;;;;;16.71;48.76;101148.59;683410;28;91105;-69
2022/05/05 01:01:43;;;;;;;451.92;299.98;;;;;;;16.71;48.96;101143.13;684517;28;92204;-69
2022/05/05 01:02:05;;;;;;;449.52;290.73;;;;;;;16.69;48.93;101142.47;687251;28;24868;-69
2022/05/05 01:02:27;;;;;;;451.58;298.88;;;;;;;16.72;49.09;101150.25;687676;28;1519;-70
2022/05/05 01:02:48;;;;;;;451.95;300.20;;;;;;;16.71;49.23;101146.69;686443;28;47146;-70
2022/05/05 01:03:10;;;;;;;452.15;300.35;;;;;;;16.71;48.87;101148.59;686063;28;46509;-68
2022/05/05 01:03:33;;;;;;;452.23;301.45;;;;;;;16.68;49.09;101141.66;686385;28;38055;-69
2022/05/05 01:03:55;;;;;;;452.33;300.77;;;;;;;16.69;49.08;101146.06;685655;28;69338;-69
2022/05/05 01:04:16;;;;;;;452.70;304.77;;;;;;;16.71;49.05;101146.69;685837;28;45284;-69
2022/05/05 01:04:38;;;;;;;452.92;307.48;;;;;;;16.69;49.12;101148.78;687239;28;22477;-69
2022/05/05 01:04:59;;;;;;;451.48;302.65;;;;;;;16.69;49.30;101143.34;687207;28;23611;-69
2022/05/05 01:05:21;;;;;;;451.50;300.38;;;;;;;16.71;49.12;101151.31;686283;28;46241;-69
2022/05/05 01:05:43;;;;;;;453.27;306.08;;;;;;;16.71;49.26;101145.84;686310;28;46269;-70
2022/05/05 01:06:05;;;;;;;453.55;308.20;;;;;;;16.71;49.16;101146.69;685977;28;47481;-70
2022/05/05 01:06:27;;;;;;;454.45;309.88;;;;;;;16.70;49.57;101144.16;685255;28;45163;-69
2022/05/05 01:06:49;;;;;;;451.35;295.48;;;;;;;16.73;49.55;101157.38;686150;28;44394;-70
2022/05/05 01:07:10;;;;;;;450.88;296.88;;;;;;;16.73;49.69;101143.75;686221;28;44369;-69
2022/05/05 01:07:32;;;;;;;450.73;295.85;;;;;;;16.73;49.87;101152.75;686259;28;23792;-69
2022/05/05 01:07:53;;;;;;;452.48;301.90;;;;;;;16.72;49.61;101150.25;685961;28;46104;-69
2022/05/05 01:08:18;;;;;;;451.40;303.38;;;;;;;16.71;49.77;101152.16;687718;28;1544;-70
2022/05/05 01:08:40;;;;;;;461.27;329.35;;;;;;;16.73;49.96;101150.03;685118;28;92138;-70
2022/05/05 01:09:05;;;;;;;460.92;335.23;;;;;;;16.73;49.80;101160.94;686852;28;22406;-69
2022/05/05 01:09:26;;;;;;;452.23;301.17;;;;;;;16.72;49.98;101148.38;685105;28;113567;-69
2022/05/05 01:09:49;;;;;;;455.95;312.00;;;;;;;16.73;49.78;101150.03;687784;28;21549;-68
2022/05/05 01:10:10;;;;;;;454.13;310.50;;;;;;;16.73;49.83;101151.94;685465;28;69770;-69
2022/05/05 01:10:32;;;;;;;451.75;301.92;;;;;;;16.73;49.85;101152.75;687225;28;21386;-69
2022/05/05 01:10:53;;;;;;;452.90;303.35;;;;;;;16.73;49.79;101152.75;686008;28;46544;-69
2022/05/05 01:11:15;;;;;;;450.95;295.77;;;;;;;16.72;49.93;101150.25;687235;28;22403;-69
2022/05/05 01:11:36;;;;;;;451.92;299.92;;;;;;;16.74;50.12;101153.63;685713;28;46357;-69
2022/05/05 01:11:57;;;;;;;451.90;303.55;;;;;;;16.75;50.02;101152.56;686812;28;21488;-69
2022/05/05 01:12:20;;;;;;;451.35;298.85;;;;;;;16.73;50.24;101157.38;687147;28;21405;-69
2022/05/05 01:12:41;;;;;;;450.65;294.25;;;;;;;16.74;50.23;101157.19;685209;28;69421;-69
2022/05/05 01:13:02;;;;;;;452.63;301.25;;;;;;;16.75;50.16;101158.00;686891;28;21319;-69
2022/05/05 01:13:25;;;;;;;451.70;296.02;;;;;;;16.73;50.27;101151.94;686963;28;22381;-69
2022/05/05 01:13:47;;;;;;;451.80;300.88;;;;;;;16.76;50.23;101162.44;685393;28;69670;-69
2022/05/05 01:14:08;;;;;;;452.88;302.13;;;;;;;16.78;50.21;101162.22;685880;28;45235;-69
2022/05/05 01:14:30;;;;;;;452.60;303.02;;;;;;;16.79;49.94;101167.47;687150;28;23426;-68
2022/05/05 01:14:51;;;;;;;454.77;313.33;;;;;;;16.80;49.89;101160.13;686269;28;44369;-69
2022/05/05 01:15:13;;;;;;;454.60;308.70;;;;;;;16.80;49.92;101160.94;687220;28;21578;-69
2022/05/05 01:15:35;;;;;;;452.00;298.67;;;;;;;16.80;49.76;101163.66;688572;28;43120;-69
2022/05/05 01:15:58;;;;;;;453.85;305.67;;;;;;;16.81;49.82;101161.81;687406;28;67453;-69
2022/05/05 01:16:20;;;;;;;454.00;302.92;;;;;;;16.81;49.75;101159.09;686400;28;69405;-68
2022/05/05 01:16:42;;;;;;;451.92;297.00;;;;;;;16.82;49.91;101163.47;689661;28;21560;-70
2022/05/05 01:17:05;;;;;;;452.35;300.83;;;;;;;16.82;49.74;101158.88;688385;28;47009;-69
2022/05/05 01:17:26;;;;;;;452.05;300.85;;;;;;;16.83;49.61;101168.72;688686;28;12626;-69
2022/05/05 01:17:47;;;;;;;453.23;306.20;;;;;;;16.83;49.57;101157.81;686979;28;21523;-69
2022/05/05 01:18:09;;;;;;;453.35;304.95;;;;;;;16.83;49.87;101159.69;687054;28;23756;-70
2022/05/05 01:18:30;;;;;;;453.27;302.55;;;;;;;16.81;49.94;101159.09;688520;28;47354;-69
2022/05/05 01:18:55;;;;;;;450.85;297.90;;;;;;;16.81;49.70;101161.81;689333;28;23447;-69
2022/05/05 01:19:16;;;;;;;453.02;303.08;;;;;;;16.79;49.86;101159.28;685870;28;116421;-70
2022/05/05 01:19:38;;;;;;;451.77;294.60;;;;;;;16.78;49.31;101160.31;689238;28;21477;-69
2022/05/05 01:20:09;;;;;;;454.17;301.92;;;;;;;16.78;49.20;101157.59;688763;28;44412;-69
2022/05/05 01:20:30;;;;;;;452.92;301.25;;;;;;;16.76;49.28;101157.81;683617;28;137842;-69
2022/05/05 01:20:54;;;;;;;453.77;308.45;;;;;;;16.75;48.91;101149.81;687876;28;1379;-69
2022/05/05 01:21:16;;;;;;;450.17;295.67;;;;;;;16.76;49.02;101151.53;684667;28;94489;-69
2022/05/05 01:21:38;;;;;;;452.35;303.92;;;;;;;16.75;49.04;101156.16;685131;28;46383;-69
2022/05/05 01:21:59;;;;;;;452.27;303.92;;;;;;;16.75;48.88;101155.28;686280;28;46163;-69
2022/05/05 01:22:20;;;;;;;451.17;303.25;;;;;;;16.74;48.91;101153.63;687044;28;22415;-68
2022/05/05 01:22:42;;;;;;;451.17;302.60;;;;;;;16.72;48.91;101147.50;686238;28;46287;-71
2022/05/05 01:23:03;;;;;;;449.75;294.77;;;;;;;16.74;49.22;101145.44;686386;28;46295;-69
2022/05/05 01:23:24;;;;;;;450.23;298.10;;;;;;;16.71;48.98;101152.16;686821;28;22399;-69
2022/05/05 01:23:45;;;;;;;449.95;296.25;;;;;;;16.70;48.89;101149.63;686940;28;21504;-69
2022/05/05 01:24:08;;;;;;;451.15;300.58;;;;;;;16.71;49.31;101154.03;686870;28;22495;-69
2022/05/05 01:28:27;;;;;;;451.23;301.60;;;;;;;16.62;49.62;101150.66;683177;28;137620;-69
2022/05/05 01:28:49;;;;;;;450.08;295.27;;;;;;;16.64;49.67;101162.19;685903;28;45229;-68
2022/05/05 01:29:11;;;;;;;449.60;294.08;;;;;;;16.65;49.77;101158.44;686169;28;46283;-69
2022/05/05 01:29:32;;;;;;;452.38;301.73;;;;;;;16.64;49.59;101162.19;686470;28;22411;-69
2022/05/05 01:29:54;;;;;;;453.60;304.42;;;;;;;16.65;49.65;101157.59;686421;28;43143;-69
2022/05/05 01:30:16;;;;;;;452.95;305.20;;;;;;;16.65;49.65;101157.59;686026;28;44291;-70
2022/05/05 01:30:38;;;;;;;451.85;300.58;;;;;;;16.66;49.60;101154.66;686805;28;21533;-69
2022/05/05 01:31:00;;;;;;;454.00;307.92;;;;;;;16.67;49.35;101159.03;685027;28;69400;-69
2022/05/05 01:31:21;;;;;;;455.42;313.45;;;;;;;16.69;49.67;101158.84;686693;28;7080;-69
2022/05/05 01:31:44;;;;;;;453.02;302.42;;;;;;;16.68;49.69;101162.63;687196;28;22360;-69
2022/05/05 01:32:06;;;;;;;452.73;303.85;;;;;;;16.67;49.40;101161.78;685287;28;68398;-69
2022/05/05 01:32:30;;;;;;;452.63;300.58;;;;;;;16.67;49.67;101160.94;686272;28;44346;-70
2022/05/05 01:32:51;;;;;;;451.25;296.13;;;;;;;16.67;49.76;101159.03;684323;28;92294;-70
2022/05/05 01:33:14;;;;;;;452.45;300.02;;;;;;;16.68;49.67;101166.19;687146;28;21486;-69
2022/05/05 01:33:35;;;;;;;454.08;308.63;;;;;;;16.68;49.49;101159.91;684694;28;92206;-69
2022/05/05 01:33:56;;;;;;;452.45;302.27;;;;;;;16.67;49.70;101161.78;687139;28;23553;-69
2022/05/05 01:34:18;;;;;;;465.95;342.27;;;;;;;16.66;49.65;101168.28;686913;28;23342;-69
2022/05/05 01:34:39;;;;;;;479.40;384.40;;;;;;;16.64;49.54;101158.63;688321;28;47403;-69
2022/05/05 01:35:01;;;;;;;480.90;387.38;;;;;;;16.62;49.68;101155.28;689582;28;21528;-69
2022/05/05 01:35:22;;;;;;;481.85;389.38;;;;;;;16.64;49.48;101162.19;688666;28;46157;-70
2022/05/05 01:35:46;;;;;;;483.38;395.15;;;;;;;16.65;49.60;101169.34;689735;28;23457;-69
2022/05/05 01:36:08;;;;;;;483.40;392.73;;;;;;;16.65;49.51;101163.88;686353;28;90335;-69
2022/05/05 01:36:30;;;;;;;482.58;388.80;;;;;;;16.66;49.76;101165.56;687170;28;47800;-69
2022/05/05 01:36:52;;;;;;;484.70;397.77;;;;;;;16.67;49.45;101169.13;686260;28;44357;-69
2022/05/05 01:37:13;;;;;;;484.00;398.27;;;;;;;16.68;49.77;101166.19;686145;28;45891;-69
2022/05/05 01:37:35;;;;;;;484.40;400.73;;;;;;;16.69;49.53;101169.75;686940;28;23435;-69
2022/05/05 01:37:56;;;;;;;486.48;410.85;;;;;;;16.69;49.64;101167.88;686245;28;46389;-68
2022/05/05 01:38:19;;;;;;;483.70;398.98;;;;;;;16.69;49.50;101170.63;687033;28;22318;-68
2022/05/05 01:38:44;;;;;;;486.45;412.95;;;;;;;16.69;49.34;101161.56;685323;28;67302;-68
2022/05/05 01:39:05;;;;;;;487.52;409.77;;;;;;;16.72;49.17;101177.53;683679;28;115116;-69
2022/05/05 01:39:26;;;;;;;492.88;434.02;;;;;;;16.73;49.29;101171.03;686823;28;21543;-68
2022/05/05 01:39:48;;;;;;;496.77;441.80;;;;;;;16.72;49.48;101170.19;686577;28;23477;-69
2022/05/05 01:40:11;;;;;;;489.48;423.30;;;;;;;16.73;49.25;101171.03;687148;28;22389;-69
2022/05/05 01:40:32;;;;;;;487.67;413.67;;;;;;;16.73;49.24;101174.59;685549;28;69425;-69
2022/05/05 01:40:53;;;;;;;489.40;423.25;;;;;;;16.73;49.36;101177.31;687294;28;22396;-68
2022/05/05 01:41:14;;;;;;;489.65;426.23;;;;;;;16.73;49.45;101173.75;686843;28;21530;-70
2022/05/05 01:41:37;;;;;;;490.08;424.27;;;;;;;16.73;49.21;101180.03;685514;28;46360;-69
2022/05/05 01:41:58;;;;;;;488.65;419.48;;;;;;;16.69;49.46;101170.63;686347;28;46418;-69
2022/05/05 01:42:19;;;;;;;489.75;419.48;;;;;;;16.73;49.19;101176.47;686766;28;20727;-68
2022/05/05 01:42:40;;;;;;;491.45;429.23;;;;;;;16.73;49.23;101174.59;685435;28;46326;-69
2022/05/05 01:43:01;;;;;;;492.27;432.73;;;;;;;16.74;49.15;101178.16;686715;28;22366;-69
2022/05/05 01:43:23;;;;;;;490.88;431.38;;;;;;;16.71;49.25;101173.13;686552;28;22463;-69
2022/05/05 01:43:45;;;;;;;491.48;429.45;;;;;;;16.73;49.20;101171.03;685951;28;46312;-69
2022/05/05 01:44:06;;;;;;;492.10;429.05;;;;;;;16.73;48.96;101177.31;686803;28;22397;-68
2022/05/05 01:44:27;;;;;;;492.90;434.38;;;;;;;16.73;49.12;101179.22;688286;28;40302;-70
2022/05/05 01:44:49;;;;;;;496.58;441.77;;;;;;;16.72;49.28;101177.53;689156;28;22172;-69
2022/05/05 01:45:10;;;;;;;491.48;432.33;;;;;;;16.72;49.09;101183.84;688291;28;46258;-69
2022/05/05 01:45:32;;;;;;;493.83;439.23;;;;;;;16.73;49.33;101190.13;689320;28;21558;-69
2022/05/05 01:45:54;;;;;;;511.02;456.02;;;;;;;16.72;49.31;101182.97;689063;28;21512;-70
2022/05/05 01:46:15;;;;;;;518.40;463.15;;;;;;;16.70;49.14;101188.63;687652;28;45260;-69